Time;durP1;ratioP1;P1;durP2;ratioP2;P2;SDS_P1;SDS_P2;PMS_P1;PMS_P2;Temp;Humidity;BMP_temperature;BMP_pressure;BME280_temperature;BME280_humidity;BME280_pressure;Samples;Min_cycle;Max_cycle;Signal;HPM_P1;HPM_P2
2022/10/02 00:01:56;;;;;;;3.27;1.20;;;15.60;67.30;;;;;;4997571;28;20946;-64
2022/10/02 00:04:30;;;;;;;2.57;1.47;;;15.60;67.40;;;;;;5002138;28;20452;-64
2022/10/02 00:07:05;;;;;;;3.70;1.80;;;15.60;67.30;;;;;;5003715;28;20575;-64
2022/10/02 00:09:38;;;;;;;7.03;2.00;;;15.60;67.50;;;;;;4993676;28;20499;-64
2022/10/02 00:12:10;;;;;;;4.33;1.50;;;15.60;67.80;;;;;;5021767;28;20517;-65
2022/10/02 00:14:42;;;;;;;4.67;1.90;;;15.60;67.60;;;;;;4991541;28;20524;-64
2022/10/02 00:17:18;;;;;;;6.20;2.53;;;15.60;68.20;;;;;;4998283;28;20567;-65
2022/10/02 00:19:46;;;;;;;3.57;1.53;;;15.60;68.00;;;;;;4998654;28;20468;-64
2022/10/02 00:22:28;;;;;;;4.20;1.50;;;15.60;67.60;;;;;;4994152;28;20932;-65
2022/10/02 00:25:06;;;;;;;3.63;2.20;;;15.60;67.50;;;;;;4995019;28;20465;-65
2022/10/02 00:27:53;;;;;;;7.33;2.40;;;15.60;67.70;;;;;;4997717;28;21063;-65
2022/10/02 00:30:21;;;;;;;3.80;1.70;;;15.70;68.00;;;;;;4983613;28;20440;-64
2022/10/02 00:33:04;;;;;;;5.10;1.90;;;15.60;67.90;;;;;;5019542;28;20572;-65
2022/10/02 00:35:56;;;;;;;4.60;2.13;;;15.60;67.40;;;;;;5006859;28;20528;-65
2022/10/02 00:38:38;;;;;;;1.67;1.33;;;15.60;67.20;;;;;;4995770;28;20505;-64
2022/10/02 00:41:28;;;;;;;2.23;1.50;;;15.60;67.50;;;;;;5006287;28;20441;-65
2022/10/02 00:44:17;;;;;;;1.63;1.37;;;15.60;67.80;;;;;;5012743;28;21064;-65
2022/10/02 00:46:55;;;;;;;6.10;1.90;;;15.60;67.40;;;;;;5005981;28;20555;-64
2022/10/02 00:49:45;;;;;;;4.47;2.03;;;15.60;67.80;;;;;;5006811;28;20990;-65
2022/10/02 00:52:28;;;;;;;8.93;2.00;;;15.60;67.80;;;;;;5015250;28;20764;-65
2022/10/02 00:55:14;;;;;;;6.40;1.90;;;15.60;67.70;;;;;;5015158;28;20536;-65
2022/10/02 00:57:55;;;;;;;4.33;1.73;;;15.60;68.10;;;;;;5013818;28;20465;-64
2022/10/02 01:00:23;;;;;;;2.60;1.40;;;15.60;67.90;;;;;;5006470;28;20540;-65
2022/10/02 01:03:11;;;;;;;5.40;2.10;;;15.60;67.40;;;;;;5012972;28;20851;-64
2022/10/02 01:05:40;;;;;;;3.30;1.77;;;15.60;68.00;;;;;;5006568;28;20436;-65
2022/10/02 01:08:08;;;;;;;2.50;1.53;;;15.60;68.10;;;;;;5015988;28;20579;-64
2022/10/02 01:10:39;;;;;;;5.73;2.27;;;15.60;67.70;;;;;;5006894;28;20778;-64
2022/10/02 01:13:08;;;;;;;1.77;1.37;;;15.60;67.80;;;;;;5020356;28;20528;-64
2022/10/02 01:15:39;;;;;;;6.90;2.23;;;15.60;68.10;;;;;;5010279;28;20445;-64
2022/10/02 01:18:09;;;;;;;5.87;2.20;;;15.60;67.80;;;;;;5005818;28;20905;-65
2022/10/02 01:20:41;;;;;;;4.33;1.40;;;15.60;68.00;;;;;;5026410;28;20588;-65
2022/10/02 01:23:19;;;;;;;4.20;1.70;;;15.60;67.80;;;;;;5011303;28;20575;-65
2022/10/02 01:25:49;;;;;;;4.97;1.87;;;15.60;67.60;;;;;;5007007;28;20441;-65
2022/10/02 01:28:17;;;;;;;7.23;2.07;;;15.60;67.50;;;;;;5003969;28;20469;-65
2022/10/02 01:30:50;;;;;;;4.33;1.70;;;15.60;67.90;;;;;;4987811;28;20481;-65
2022/10/02 01:33:18;;;;;;;6.40;1.93;;;15.60;67.30;;;;;;5018659;28;20480;-64
2022/10/02 01:35:47;;;;;;;6.13;1.70;;;15.60;67.70;;;;;;5025528;28;20548;-65
2022/10/02 01:38:19;;;;;;;6.10;2.00;;;15.60;67.80;;;;;;5012520;28;21000;-65
2022/10/02 01:40:48;;;;;;;5.87;1.77;;;15.60;67.90;;;;;;5018243;28;20833;-65
2022/10/02 01:43:19;;;;;;;1.63;1.53;;;15.60;67.60;;;;;;5002820;28;20504;-71
2022/10/02 01:45:55;;;;;;;4.20;1.43;;;15.60;67.20;;;;;;5007775;28;20509;-71
2022/10/02 01:48:38;;;;;;;5.60;2.07;;;15.60;67.10;;;;;;5024883;28;20562;-70
2022/10/02 01:51:22;;;;;;;3.33;1.57;;;15.60;66.80;;;;;;5006487;28;20524;-70
2022/10/02 01:53:54;;;;;;;4.13;2.13;;;15.60;67.40;;;;;;4999855;28;20564;-70
2022/10/02 01:56:36;;;;;;;4.57;1.70;;;15.60;67.40;;;;;;5012487;28;20560;-71
2022/10/02 01:59:18;;;;;;;5.47;1.63;;;15.60;67.00;;;;;;5003036;28;20473;-72
2022/10/02 02:01:58;;;;;;;3.57;1.33;;;15.60;67.50;;;;;;4999110;28;20540;-71
2022/10/02 02:04:31;;;;;;;5.00;1.73;;;15.60;66.80;;;;;;5027560;28;20464;-70
2022/10/02 02:07:04;;;;;;;3.17;1.70;;;15.60;66.60;;;;;;5009962;28;20555;-70
2022/10/02 02:09:40;;;;;;;3.30;1.47;;;15.60;66.80;;;;;;4996218;28;20456;-71
2022/10/02 02:12:14;;;;;;;4.67;1.87;;;15.50;66.60;;;;;;4995251;28;20439;-70
2022/10/02 02:14:48;;;;;;;2.90;1.23;;;15.60;66.80;;;;;;5027365;28;20437;-71
2022/10/02 02:17:26;;;;;;;4.40;1.33;;;15.60;66.90;;;;;;5002481;28;20496;-70
2022/10/02 02:20:01;;;;;;;4.03;2.30;;;15.60;66.90;;;;;;5010753;28;20433;-70
2022/10/02 02:22:34;;;;;;;3.70;1.70;;;15.60;67.00;;;;;;5014497;28;20840;-70
2022/10/02 02:25:07;;;;;;;2.90;1.70;;;15.60;67.20;;;;;;4995075;28;20481;-70
2022/10/02 02:27:41;;;;;;;6.27;1.80;;;15.50;66.90;;;;;;5011344;28;20469;-70
2022/10/02 02:30:11;;;;;;;3.53;1.27;;;15.60;67.30;;;;;;5016788;28;20460;-70
2022/10/02 02:32:45;;;;;;;4.90;1.80;;;15.60;66.70;;;;;;4993743;28;20449;-71
2022/10/02 02:35:17;;;;;;;2.53;1.57;;;15.60;66.80;;;;;;5019837;28;20971;-70
2022/10/02 02:37:49;;;;;;;4.87;2.20;;;15.50;66.70;;;;;;5025204;28;21070;-71
2022/10/02 02:40:22;;;;;;;4.50;1.63;;;15.50;66.50;;;;;;5018051;28;21044;-71
2022/10/02 02:42:58;;;;;;;4.20;1.60;;;15.60;66.70;;;;;;5011780;28;21099;-65
2022/10/02 02:45:32;;;;;;;3.00;1.87;;;15.50;66.80;;;;;;5013271;28;20876;-64
2022/10/02 02:48:05;;;;;;;2.50;1.70;;;15.50;66.50;;;;;;5007608;28;20520;-70
2022/10/02 02:50:40;;;;;;;2.00;1.10;;;15.50;66.40;;;;;;5008137;28;20463;-70
2022/10/02 02:53:13;;;;;;;3.60;1.87;;;15.50;66.70;;;;;;5017915;28;20481;-65
2022/10/02 02:55:46;;;;;;;4.50;1.90;;;15.50;67.30;;;;;;5007391;28;20445;-65
2022/10/02 02:58:20;;;;;;;2.03;1.57;;;15.60;66.60;;;;;;5003442;28;20519;-64
2022/10/02 03:00:49;;;;;;;2.43;1.90;;;15.50;66.70;;;;;;5022004;28;20448;-65
2022/10/02 03:03:17;;;;;;;5.10;1.70;;;15.50;66.60;;;;;;4997074;28;21004;-65
2022/10/02 03:05:49;;;;;;;3.90;1.67;;;15.50;66.50;;;;;;5022402;28;20835;-65
2022/10/02 03:08:22;;;;;;;4.23;1.70;;;15.50;66.70;;;;;;5001514;28;20839;-64
2022/10/02 03:11:04;;;;;;;2.20;1.53;;;15.50;66.90;;;;;;5001423;28;20967;-64
2022/10/02 03:13:46;;;;;;;3.73;1.90;;;15.50;66.60;;;;;;4982142;28;20473;-64
2022/10/02 03:16:28;;;;;;;4.10;1.60;;;15.50;66.90;;;;;;5000636;28;20539;-64
2022/10/02 03:19:09;;;;;;;3.67;2.40;;;15.50;66.90;;;;;;4991483;28;20481;-65
2022/10/02 03:21:47;;;;;;;6.83;1.80;;;15.50;66.60;;;;;;5003997;28;20959;-65
2022/10/02 03:24:20;;;;;;;4.83;1.60;;;15.50;67.00;;;;;;5021703;23;20517;-73
2022/10/02 03:26:55;;;;;;;3.47;1.90;;;15.50;66.50;;;;;;4968201;28;20498;-72
2022/10/02 03:29:29;;;;;;;9.47;1.60;;;15.50;67.20;;;;;;4985265;28;20429;-72
2022/10/02 03:31:59;;;;;;;3.57;2.07;;;15.50;67.10;;;;;;4986251;28;20498;-72
2022/10/02 03:34:31;;;;;;;5.87;2.10;;;15.50;67.10;;;;;;4971903;28;20430;-72
2022/10/02 03:37:00;;;;;;;4.47;1.73;;;15.50;66.90;;;;;;4963866;28;20465;-72
2022/10/02 03:39:28;;;;;;;4.27;1.70;;;15.50;67.20;;;;;;4963114;28;20473;-72
2022/10/02 03:41:57;;;;;;;4.43;1.60;;;15.50;67.70;;;;;;4979661;28;20452;-72
2022/10/02 03:44:26;;;;;;;5.67;1.40;;;15.50;67.50;;;;;;4971693;28;20485;-72
2022/10/02 03:46:55;;;;;;;5.50;1.47;;;15.50;68.90;;;;;;4984400;28;20544;-72
2022/10/02 03:49:23;;;;;;;2.20;1.97;;;15.50;67.00;;;;;;4985458;28;20452;-74
2022/10/02 03:51:51;;;;;;;7.83;1.63;;;15.50;67.30;;;;;;4959826;28;20440;-72
2022/10/02 03:54:21;;;;;;;3.77;1.90;;;15.50;67.70;;;;;;4963194;28;20446;-73
2022/10/02 03:56:55;;;;;;;4.13;1.70;;;15.50;67.30;;;;;;4988265;28;21569;-74
2022/10/02 03:59:40;;;;;;;2.87;1.67;;;15.50;67.30;;;;;;4978555;28;20518;-74
2022/10/02 04:02:19;;;;;;;2.50;1.20;;;15.50;67.40;;;;;;4976509;28;20470;-74
2022/10/02 04:04:53;;;;;;;3.00;1.43;;;15.50;68.80;;;;;;4976992;28;20829;-74
2022/10/02 04:07:27;;;;;;;2.50;1.47;;;15.50;67.70;;;;;;4977417;28;20464;-74
2022/10/02 04:10:05;;;;;;;2.93;1.63;;;15.50;67.50;;;;;;4988735;28;20446;-74
2022/10/02 04:12:38;;;;;;;4.97;1.50;;;15.50;67.40;;;;;;4978895;28;20493;-74
2022/10/02 04:15:17;;;;;;;2.67;1.53;;;15.50;67.60;;;;;;4979333;28;20430;-73
2022/10/02 04:17:51;;;;;;;4.70;1.70;;;15.50;67.90;;;;;;4973149;28;20469;-73
2022/10/02 04:20:32;;;;;;;3.63;2.03;;;15.50;67.60;;;;;;4979913;28;20450;-73
2022/10/02 04:23:06;;;;;;;3.20;1.33;;;15.50;67.70;;;;;;4968438;28;20469;-72
2022/10/02 04:25:39;;;;;;;5.20;2.00;;;15.50;67.50;;;;;;4989790;28;20472;-74
2022/10/02 04:28:13;;;;;;;3.43;1.60;;;15.50;67.50;;;;;;4981766;28;21025;-74
2022/10/02 04:30:43;;;;;;;2.00;1.40;;;15.40;67.10;;;;;;4980027;28;20541;-74
2022/10/02 04:33:14;;;;;;;1.70;1.13;;;15.50;67.70;;;;;;4966855;28;20457;-74
2022/10/02 04:35:52;;;;;;;2.60;1.60;;;15.50;67.30;;;;;;4974374;28;20501;-73
2022/10/02 04:38:43;;;;;;;1.80;1.30;;;15.50;67.20;;;;;;4989601;28;20478;-72
2022/10/02 04:41:33;;;;;;;4.30;1.90;;;15.50;67.30;;;;;;4990411;28;20496;-74
2022/10/02 04:44:12;;;;;;;2.60;1.20;;;15.40;67.50;;;;;;4981730;28;20480;-72
2022/10/02 04:46:59;;;;;;;3.00;1.27;;;15.50;67.30;;;;;;4996559;28;20507;-72
2022/10/02 04:49:45;;;;;;;2.40;1.63;;;15.50;67.40;;;;;;4985455;28;20561;-72
2022/10/02 04:52:33;;;;;;;3.80;1.30;;;15.50;67.10;;;;;;4943326;28;20449;-73
2022/10/02 04:55:24;;;;;;;1.60;1.43;;;15.50;67.30;;;;;;4975750;28;20811;-72
2022/10/02 04:58:06;;;;;;;3.10;1.57;;;15.40;67.30;;;;;;4984199;28;20551;-72
2022/10/02 05:00:42;;;;;;;2.77;1.67;;;15.40;67.40;;;;;;4998981;28;20468;-74
2022/10/02 05:03:32;;;;;;;2.50;1.30;;;15.40;67.50;;;;;;4965721;28;20531;-72
2022/10/02 05:06:18;;;;;;;1.20;1.10;;;15.40;67.60;;;;;;4973987;28;20488;-73
2022/10/02 05:08:59;;;;;;;2.23;1.20;;;15.40;67.30;;;;;;4984009;28;20533;-73
2022/10/02 05:11:43;;;;;;;3.43;1.30;;;15.50;67.30;;;;;;4968802;28;20481;-74
2022/10/02 05:14:37;;;;;;;6.33;1.40;;;15.50;67.70;;;;;;4984664;28;20503;-74
2022/10/02 05:17:19;;;;;;;1.80;1.10;;;15.40;67.90;;;;;;4990615;28;20544;-73
2022/10/02 05:20:03;;;;;;;4.80;1.50;;;15.40;67.80;;;;;;4987271;28;20956;-71
2022/10/02 05:22:53;;;;;;;1.40;1.20;;;15.40;67.50;;;;;;4981184;28;20552;-73
2022/10/02 05:25:47;;;;;;;2.63;1.23;;;15.40;67.70;;;;;;4967932;28;20512;-73
2022/10/02 05:28:29;;;;;;;1.50;1.10;;;15.40;67.80;;;;;;4967029;28;20482;-71
2022/10/02 05:31:08;;;;;;;1.97;1.63;;;15.40;67.80;;;;;;4980054;28;20444;-72
2022/10/02 05:33:56;;;;;;;3.00;1.23;;;15.40;67.80;;;;;;4993689;28;20457;-73
2022/10/02 05:36:37;;;;;;;3.90;1.60;;;15.40;68.40;;;;;;4978233;28;20519;-73
2022/10/02 05:39:09;;;;;;;2.93;1.30;;;15.40;67.70;;;;;;4966540;28;20466;-72
2022/10/02 05:41:48;;;;;;;2.80;1.37;;;15.40;67.60;;;;;;4975043;28;20452;-72
2022/10/02 05:44:20;;;;;;;5.40;1.27;;;15.40;68.90;;;;;;4963239;28;20493;-73
2022/10/02 05:46:53;;;;;;;3.33;1.40;;;15.40;67.90;;;;;;4993261;28;20582;-73
2022/10/02 05:49:28;;;;;;;1.40;0.87;;;15.40;68.10;;;;;;4980382;28;20485;-73
2022/10/02 05:52:02;;;;;;;3.40;1.47;;;15.40;67.80;;;;;;4973808;28;20445;-73
2022/10/02 05:54:41;;;;;;;2.00;1.00;;;15.40;67.90;;;;;;4988762;28;20437;-72
2022/10/02 05:57:16;;;;;;;3.17;1.30;;;15.40;67.30;;;;;;4949930;28;20472;-73
2022/10/02 05:59:56;;;;;;;3.53;1.33;;;15.40;67.50;;;;;;4990080;28;20864;-72
2022/10/02 06:02:32;;;;;;;1.53;1.17;;;15.40;67.40;;;;;;4969528;28;20877;-73
2022/10/02 06:05:14;;;;;;;1.33;1.00;;;15.40;67.80;;;;;;4971735;28;20524;-71
2022/10/02 06:07:49;;;;;;;3.47;1.43;;;15.40;67.90;;;;;;4981563;28;20988;-73
2022/10/02 06:10:24;;;;;;;3.77;1.53;;;15.40;67.80;;;;;;4986130;28;20440;-72
2022/10/02 06:12:57;;;;;;;2.27;1.23;;;15.40;67.60;;;;;;4975385;28;20549;-73
2022/10/02 06:15:30;;;;;;;2.00;1.13;;;15.40;67.70;;;;;;4973180;28;20860;-72
2022/10/02 06:18:03;;;;;;;3.90;1.23;;;15.40;67.80;;;;;;4974532;28;20533;-72
2022/10/02 06:20:36;;;;;;;4.20;1.20;;;15.40;67.80;;;;;;4990087;28;20437;-71
2022/10/02 06:23:10;;;;;;;3.30;0.90;;;15.40;67.80;;;;;;4985792;28;20485;-73
2022/10/02 06:25:44;;;;;;;2.57;0.97;;;15.40;67.70;;;;;;4997718;28;20473;-72
2022/10/02 06:28:17;;;;;;;5.00;1.40;;;15.40;68.10;;;;;;4972109;28;20492;-73
2022/10/02 06:30:49;;;;;;;1.10;0.90;;;15.40;68.50;;;;;;4975850;28;20442;-71
2022/10/02 06:33:22;;;;;;;1.70;1.03;;;15.40;67.80;;;;;;4975134;28;20552;-73
2022/10/02 06:36:20;;;;;;;2.60;1.00;;;15.40;67.70;;;;;;4992334;28;20559;-73
2022/10/02 06:39:15;;;;;;;1.97;1.00;;;15.40;67.70;;;;;;4973799;28;20849;-73
2022/10/02 06:41:56;;;;;;;1.80;0.90;;;15.40;67.80;;;;;;4976486;28;20438;-73
2022/10/02 06:44:34;;;;;;;1.77;1.10;;;15.40;67.50;;;;;;4974460;28;20465;-72
2022/10/02 06:47:17;;;;;;;1.70;1.40;;;15.40;67.70;;;;;;4979613;28;20484;-73
2022/10/02 06:50:03;;;;;;;1.40;1.07;;;15.40;67.80;;;;;;4997372;28;20524;-73
2022/10/02 06:52:42;;;;;;;2.43;1.33;;;15.40;67.80;;;;;;4992407;28;20545;-73
2022/10/02 06:55:31;;;;;;;1.83;0.90;;;15.40;67.60;;;;;;4981632;28;21040;-73
2022/10/02 06:58:12;;;;;;;2.80;1.20;;;15.40;68.40;;;;;;4969862;28;20561;-72
2022/10/02 07:00:48;;;;;;;2.43;1.20;;;15.40;68.40;;;;;;4988384;28;20951;-72
2022/10/02 07:03:31;;;;;;;3.37;1.23;;;15.40;68.30;;;;;;4945554;28;20569;-72
2022/10/02 07:06:26;;;;;;;2.37;1.13;;;15.40;68.10;;;;;;4971191;28;20568;-72
2022/10/02 07:09:16;;;;;;;1.40;1.07;;;15.40;68.20;;;;;;4969007;28;20558;-72
2022/10/02 07:11:57;;;;;;;2.20;1.00;;;15.40;68.40;;;;;;4995682;28;20452;-72
2022/10/02 07:14:50;;;;;;;3.60;1.00;;;15.40;68.10;;;;;;4984233;28;20418;-73
2022/10/02 07:17:30;;;;;;;2.83;1.40;;;15.40;67.90;;;;;;4962594;28;20462;-73
2022/10/02 07:20:29;;;;;;;1.47;1.10;;;15.40;68.20;;;;;;4995187;28;20444;-72
2022/10/02 07:23:18;;;;;;;1.50;0.90;;;15.30;67.70;;;;;;4969393;28;20814;-72
2022/10/02 07:26:00;;;;;;;2.97;1.23;;;15.30;67.70;;;;;;4972294;28;20481;-73
2022/10/02 07:28:41;;;;;;;1.97;1.00;;;15.40;68.10;;;;;;4971106;28;20496;-72
2022/10/02 07:31:19;;;;;;;2.80;0.70;;;15.40;68.20;;;;;;4973998;28;20829;-71
2022/10/02 07:34:00;;;;;;;1.70;1.20;;;15.30;67.90;;;;;;4958675;28;20496;-73
2022/10/02 07:36:42;;;;;;;1.60;0.87;;;15.30;67.80;;;;;;4970747;28;21847;-73
2022/10/02 07:39:26;;;;;;;1.10;0.90;;;15.30;67.50;;;;;;4954491;28;20477;-71
2022/10/02 07:42:21;;;;;;;1.03;0.83;;;15.40;67.50;;;;;;4970248;28;20492;-73
2022/10/02 07:45:15;;;;;;;2.90;1.10;;;15.40;67.50;;;;;;4977772;28;20520;-72
2022/10/02 07:47:59;;;;;;;2.50;1.50;;;15.40;69.20;;;;;;4976340;28;20577;-73
2022/10/02 07:50:39;;;;;;;2.57;1.40;;;15.40;67.70;;;;;;4986773;28;20450;-72
2022/10/02 07:53:17;;;;;;;1.57;0.87;;;15.30;68.20;;;;;;4965483;28;20485;-73
2022/10/02 07:55:53;;;;;;;1.00;0.80;;;15.30;67.80;;;;;;4979142;28;20458;-71
2022/10/02 07:58:33;;;;;;;1.47;1.00;;;15.30;68.00;;;;;;4972379;28;20552;-72
2022/10/02 08:01:08;;;;;;;3.57;1.00;;;15.40;68.00;;;;;;4969501;28;20534;-72
2022/10/02 08:03:43;;;;;;;1.57;0.80;;;15.30;68.60;;;;;;4969881;28;20527;-74
2022/10/02 08:06:13;;;;;;;1.37;0.80;;;15.30;68.20;;;;;;4964769;28;20469;-71
2022/10/02 08:08:49;;;;;;;1.77;1.00;;;15.30;68.30;;;;;;4983392;28;20544;-71
2022/10/02 08:11:23;;;;;;;1.73;0.80;;;15.40;68.20;;;;;;4968745;28;20861;-73
2022/10/02 08:13:57;;;;;;;1.53;1.00;;;15.30;67.80;;;;;;4975261;28;20470;-71
2022/10/02 08:16:34;;;;;;;3.20;1.17;;;15.30;68.50;;;;;;4986220;28;20453;-72
2022/10/02 08:19:07;;;;;;;2.43;1.20;;;15.30;68.10;;;;;;4971817;28;20505;-73
2022/10/02 08:21:42;;;;;;;3.33;0.70;;;15.30;67.80;;;;;;4987410;28;20430;-71
2022/10/02 08:24:15;;;;;;;1.13;0.67;;;15.40;69.50;;;;;;4966085;28;20481;-73
2022/10/02 08:26:48;;;;;;;2.60;1.43;;;15.30;68.30;;;;;;4982602;28;20977;-73
2022/10/02 08:29:24;;;;;;;1.93;1.03;;;15.40;68.30;;;;;;4964501;28;20519;-73
2022/10/02 08:31:54;;;;;;;1.00;0.90;;;15.30;68.00;;;;;;4988325;28;20437;-73
2022/10/02 08:34:25;;;;;;;4.50;1.10;;;15.40;68.40;;;;;;4990833;28;20465;-72
2022/10/02 08:37:08;;;;;;;0.90;0.73;;;15.30;68.20;;;;;;4978652;28;20456;-72
2022/10/02 08:40:29;;;;;;;1.53;0.80;;;15.30;68.30;;;;;;4975317;28;20449;-73
2022/10/02 08:43:31;;;;;;;1.23;0.70;;;15.30;68.10;;;;;;4969427;28;20992;-71
2022/10/02 08:46:26;;;;;;;1.60;0.97;;;15.30;67.80;;;;;;4972446;28;20491;-73
2022/10/02 08:49:30;;;;;;;1.83;0.97;;;15.30;67.60;;;;;;4973954;28;20455;-71
2022/10/02 08:52:34;;;;;;;1.77;0.87;;;15.30;67.80;;;;;;4965839;28;20500;-72
2022/10/02 08:55:36;;;;;;;2.30;1.03;;;15.40;67.60;;;;;;4985561;28;20469;-71
2022/10/02 08:58:58;;;;;;;1.27;1.10;;;15.30;67.50;;;;;;4947255;28;20469;-71
2022/10/02 09:02:18;;;;;;;1.00;0.70;;;15.30;67.70;;;;;;4990346;28;20444;-73
2022/10/02 09:05:39;;;;;;;1.10;0.67;;;15.40;67.10;;;;;;4936530;28;21046;-71
2022/10/02 09:08:46;;;;;;;1.10;0.90;;;15.30;68.00;;;;;;4966400;28;20996;-72
2022/10/02 09:11:57;;;;;;;0.93;0.80;;;15.30;67.40;;;;;;4980653;28;20429;-71
2022/10/02 09:14:49;;;;;;;1.43;0.93;;;15.30;67.40;;;;;;4970241;28;20491;-73
2022/10/02 09:17:49;;;;;;;1.07;0.97;;;15.30;67.30;;;;;;4992511;28;20564;-72
2022/10/02 09:20:47;;;;;;;4.63;1.50;;;15.30;67.10;;;;;;4966730;28;20455;-73
2022/10/02 09:26:25;;;;;;;1.77;1.00;;;15.30;66.90;;;;;;4988766;28;20571;-73
2022/10/02 09:29:25;;;;;;;1.63;1.00;;;15.40;67.00;;;;;;4987554;28;21024;-73
2022/10/02 09:32:35;;;;;;;1.17;0.80;;;15.30;67.00;;;;;;4996979;28;20454;-72
2022/10/02 09:35:49;;;;;;;4.10;1.43;;;15.30;67.10;;;;;;5023998;28;20802;-74
2022/10/02 09:38:50;;;;;;;2.17;1.03;;;15.30;66.80;;;;;;4984503;28;20469;-72
2022/10/02 09:41:43;;;;;;;1.40;1.20;;;15.40;67.20;;;;;;5008545;28;20535;-72
2022/10/02 09:45:08;;;;;;;1.30;0.90;;;15.30;67.00;;;;;;5005125;28;20536;-72
2022/10/02 09:48:15;;;;;;;1.40;0.70;;;15.30;66.80;;;;;;4943137;28;20478;-71
2022/10/02 09:51:10;;;;;;;1.10;0.57;;;15.30;66.80;;;;;;4957782;28;20435;-74
2022/10/02 09:54:17;;;;;;;1.63;1.20;;;15.40;66.90;;;;;;4994215;28;20553;-73
2022/10/02 09:57:39;;;;;;;0.90;0.77;;;15.30;66.90;;;;;;4995632;28;20512;-72
2022/10/02 10:00:20;;;;;;;1.70;0.80;;;15.40;66.80;;;;;;5001304;28;20533;-71
2022/10/02 10:03:27;;;;;;;1.33;0.70;;;15.30;66.90;;;;;;5005070;28;20456;-72
2022/10/02 10:06:53;;;;;;;2.90;0.70;;;15.40;66.90;;;;;;5006524;28;20465;-73
2022/10/02 10:10:07;;;;;;;0.80;0.60;;;15.40;66.90;;;;;;4962621;28;20922;-72
2022/10/02 10:13:08;;;;;;;1.20;0.90;;;15.40;67.00;;;;;;4963420;28;20971;-73
2022/10/02 10:16:13;;;;;;;1.60;0.90;;;15.40;67.00;;;;;;4999218;28;20460;-73
2022/10/02 10:19:25;;;;;;;1.40;0.57;;;15.40;67.10;;;;;;4954128;28;20552;-73
2022/10/02 10:22:22;;;;;;;2.20;1.07;;;15.40;66.80;;;;;;4994418;28;21270;-73
2022/10/02 10:25:09;;;;;;;1.00;0.63;;;15.30;66.80;;;;;;4998380;28;20482;-74
2022/10/02 10:28:08;;;;;;;1.17;0.90;;;15.30;66.90;;;;;;5014641;28;20881;-73
2022/10/02 10:31:12;;;;;;;1.00;0.80;;;15.30;66.80;;;;;;5005838;28;20472;-71
2022/10/02 10:34:13;;;;;;;1.80;0.80;;;15.40;67.00;;;;;;5010982;28;21054;-72
2022/10/02 10:40:25;;;;;;;1.90;1.00;;;15.30;68.20;;;;;;5004336;28;20464;-72
2022/10/02 10:43:40;;;;;;;1.00;0.80;;;15.30;67.00;;;;;;5024704;28;20435;-73
2022/10/02 10:46:41;;;;;;;1.13;0.83;;;15.30;67.00;;;;;;5008743;28;21057;-74
2022/10/02 10:49:34;;;;;;;1.00;0.70;;;15.40;67.00;;;;;;4999839;28;20610;-74
2022/10/02 10:52:14;;;;;;;1.77;0.97;;;15.30;66.80;;;;;;5008184;28;20468;-73
2022/10/02 10:55:15;;;;;;;1.63;0.90;;;15.30;66.80;;;;;;5006641;28;20460;-72
2022/10/02 10:57:54;;;;;;;1.17;0.90;;;15.30;66.80;;;;;;5006192;28;20504;-74
2022/10/02 11:00:25;;;;;;;2.00;0.80;;;15.40;67.20;;;;;;5001487;28;20468;-73
2022/10/02 11:03:16;;;;;;;1.60;0.70;;;15.30;66.90;;;;;;5005574;28;20430;-73
2022/10/02 11:06:16;;;;;;;1.43;0.70;;;15.40;66.80;;;;;;5012204;28;20833;-73
2022/10/02 11:09:21;;;;;;;2.23;0.87;;;15.40;66.90;;;;;;5001454;28;21087;-73
2022/10/02 11:12:06;;;;;;;1.73;0.70;;;15.40;66.90;;;;;;4983928;28;20860;-73
2022/10/02 11:14:51;;;;;;;1.90;0.80;;;15.40;66.80;;;;;;5003602;28;20970;-73
2022/10/02 11:17:45;;;;;;;2.07;0.80;;;15.30;66.80;;;;;;4998854;28;20551;-72
2022/10/02 11:20:35;;;;;;;2.13;0.90;;;15.30;66.80;;;;;;4997688;28;20952;-73
2022/10/02 11:23:31;;;;;;;1.43;0.80;;;15.40;66.90;;;;;;5010567;28;20499;-72
2022/10/02 11:26:31;;;;;;;3.17;1.17;;;15.30;68.30;;;;;;5006378;28;20463;-72
2022/10/02 11:29:18;;;;;;;1.40;1.10;;;15.40;68.90;;;;;;5013260;28;20579;-72
2022/10/02 11:32:13;;;;;;;2.50;1.70;;;15.40;71.50;;;;;;5004443;28;20439;-73
2022/10/02 11:35:00;;;;;;;2.83;1.27;;;15.40;77.00;;;;;;5004487;28;20508;-72
2022/10/02 11:37:45;;;;;;;3.43;1.10;;;15.40;75.80;;;;;;4999757;28;20468;-72
2022/10/02 11:40:40;;;;;;;1.03;0.93;;;15.40;74.70;;;;;;5000172;28;20852;-73
2022/10/02 11:43:26;;;;;;;2.10;1.13;;;15.40;73.80;;;;;;5017949;28;20854;-72
2022/10/02 11:46:31;;;;;;;3.27;1.10;;;15.40;73.60;;;;;;5008655;28;20531;-72
2022/10/02 11:49:31;;;;;;;3.00;1.30;;;15.40;72.80;;;;;;5005683;28;20566;-71
2022/10/02 11:52:21;;;;;;;1.67;0.80;;;15.30;72.40;;;;;;4986130;28;20488;-72
2022/10/02 11:55:10;;;;;;;2.77;1.30;;;15.40;72.10;;;;;;5003147;28;20440;-71
2022/10/02 11:57:50;;;;;;;5.43;1.20;;;15.40;72.00;;;;;;5015419;28;20826;-72
2022/10/02 12:01:04;;;;;;;3.17;1.30;;;15.40;71.80;;;;;;5018153;28;20445;-72
2022/10/02 12:03:52;;;;;;;1.77;1.10;;;15.40;71.30;;;;;;4974060;28;20469;-73
2022/10/02 12:06:40;;;;;;;1.87;1.17;;;15.40;71.30;;;;;;5004797;28;20461;-74
2022/10/02 12:09:18;;;;;;;3.73;0.90;;;15.40;70.90;;;;;;5008408;28;20523;-72
2022/10/02 12:12:00;;;;;;;3.20;1.23;;;15.40;70.90;;;;;;5009880;28;20437;-73
2022/10/02 12:14:34;;;;;;;1.67;1.07;;;15.40;70.70;;;;;;5000271;28;20478;-73
2022/10/02 12:17:27;;;;;;;0.93;0.83;;;15.40;70.80;;;;;;4990727;28;20469;-72
2022/10/02 12:29:24;;;;;;;1.60;1.20;;;15.40;70.20;;;;;;4997758;28;21049;-72
2022/10/02 12:31:58;;;;;;;3.80;1.37;;;15.40;70.20;;;;;;5003941;28;20557;-73
2022/10/02 12:34:40;;;;;;;2.63;1.50;;;15.40;70.10;;;;;;5003926;28;20455;-73
2022/10/02 12:37:18;;;;;;;2.30;1.20;;;15.40;70.00;;;;;;5005470;28;20476;-72
2022/10/02 12:39:55;;;;;;;1.33;1.07;;;15.40;69.80;;;;;;5005248;28;20471;-72
2022/10/02 12:42:59;;;;;;;1.30;0.97;;;15.40;69.80;;;;;;5006986;28;20804;-72
2022/10/02 12:45:50;;;;;;;0.90;0.70;;;15.40;69.70;;;;;;5024442;28;20461;-72
2022/10/02 12:48:52;;;;;;;2.83;1.30;;;15.40;69.80;;;;;;5006647;28;20479;-72
2022/10/02 12:51:35;;;;;;;3.40;1.20;;;15.40;69.50;;;;;;4975759;28;20851;-74
2022/10/02 12:54:49;;;;;;;1.50;1.30;;;15.40;69.50;;;;;;5012149;28;20473;-72
2022/10/02 12:57:55;;;;;;;3.53;1.30;;;15.40;69.40;;;;;;5005180;28;20464;-72
2022/10/02 13:00:26;;;;;;;2.37;1.33;;;15.40;69.40;;;;;;5003037;28;20508;-73
2022/10/02 13:03:33;;;;;;;1.20;0.87;;;15.40;69.20;;;;;;5007941;28;21018;-73
2022/10/02 13:06:52;;;;;;;2.60;1.17;;;15.40;70.40;;;;;;4986100;28;20466;-73
2022/10/02 13:09:27;;;;;;;2.40;1.00;;;15.40;69.20;;;;;;4949060;28;20478;-72
2022/10/02 13:12:55;;;;;;;2.03;1.00;;;15.40;69.30;;;;;;4998247;28;20458;-72
2022/10/02 13:15:38;;;;;;;2.17;1.20;;;15.40;69.00;;;;;;4922141;29;20445;-73
2022/10/02 13:18:33;;;;;;;1.00;0.90;;;15.40;69.00;;;;;;5008288;28;20468;-73
2022/10/02 13:21:10;;;;;;;1.57;0.90;;;15.40;69.10;;;;;;5009066;28;20456;-73
2022/10/02 13:23:46;;;;;;;1.00;0.90;;;15.40;68.90;;;;;;5008143;28;20475;-72
2022/10/02 13:26:25;;;;;;;2.20;1.10;;;15.40;68.90;;;;;;5009446;28;20468;-73
2022/10/02 13:29:18;;;;;;;2.20;1.13;;;15.40;68.90;;;;;;4992245;28;20503;-74
2022/10/02 13:32:00;;;;;;;1.13;1.07;;;15.40;68.90;;;;;;5005366;28;21030;-73
2022/10/02 13:34:49;;;;;;;1.60;1.10;;;15.40;68.80;;;;;;5009545;28;21160;-72
2022/10/02 13:37:32;;;;;;;1.90;1.33;;;15.40;68.80;;;;;;5007017;28;20515;-73
2022/10/02 13:40:19;;;;;;;2.30;1.00;;;15.40;68.80;;;;;;5013873;28;20428;-71
2022/10/02 13:43:17;;;;;;;2.63;1.20;;;15.40;68.70;;;;;;4997653;28;20523;-71
2022/10/02 13:45:57;;;;;;;1.40;0.87;;;15.40;68.80;;;;;;5013792;28;20480;-72
2022/10/02 13:48:41;;;;;;;1.83;1.17;;;15.40;68.70;;;;;;5007533;28;20487;-72
2022/10/02 13:51:18;;;;;;;2.53;1.10;;;15.40;68.70;;;;;;5009681;28;20531;-73
2022/10/02 13:54:05;;;;;;;1.90;0.90;;;15.50;68.70;;;;;;5008036;28;20538;-72
2022/10/02 13:56:45;;;;;;;2.90;1.20;;;15.40;68.50;;;;;;5012149;28;20510;-72
2022/10/02 13:59:31;;;;;;;4.90;1.23;;;15.50;68.70;;;;;;5008261;28;20858;-73
2022/10/02 14:02:17;;;;;;;2.10;1.10;;;15.40;68.60;;;;;;5008723;28;20539;-74
2022/10/02 14:04:56;;;;;;;1.13;0.93;;;15.40;69.90;;;;;;5009870;28;20898;-72
2022/10/02 14:07:44;;;;;;;1.93;1.10;;;15.40;68.50;;;;;;5003715;28;20592;-73
2022/10/02 14:10:27;;;;;;;3.13;1.50;;;15.40;68.50;;;;;;5012192;28;20467;-73
2022/10/02 14:13:19;;;;;;;2.50;1.00;;;15.40;68.50;;;;;;5013466;28;20491;-71
2022/10/02 14:16:06;;;;;;;1.70;1.23;;;15.40;68.50;;;;;;5011707;28;21051;-73
2022/10/02 14:18:54;;;;;;;0.97;0.77;;;15.50;68.60;;;;;;5009866;28;20468;-73
2022/10/02 14:21:29;;;;;;;0.90;0.90;;;15.50;68.50;;;;;;4993601;28;21035;-72
2022/10/02 14:24:17;;;;;;;1.10;1.00;;;15.40;68.60;;;;;;5006473;28;20556;-73
2022/10/02 14:26:58;;;;;;;1.10;1.00;;;15.40;68.60;;;;;;5015212;28;20457;-72
2022/10/02 14:29:44;;;;;;;1.53;1.00;;;15.40;68.50;;;;;;5008669;28;20469;-74